sensor_id;sensor_type;location;lat;lon;timestamp;P1;durP1;ratioP1;P2;durP2;ratioP2
6007;SDS011;3032;49.484;11.112;2023-08-06T00:02:04;9.63;;;7.97;;
6007;SDS011;3032;49.484;11.112;2023-08-06T00:04:30;8.00;;;7.30;;
6007;SDS011;3032;49.484;11.112;2023-08-06T00:06:55;9.80;;;8.63;;
6007;SDS011;3032;49.484;11.112;2023-08-06T00:09:21;10.00;;;8.53;;
6007;SDS011;3032;49.484;11.112;2023-08-06T00:11:46;8.97;;;7.40;;
6007;SDS011;3032;49.484;11.112;2023-08-06T00:14:12;8.20;;;7.50;;
6007;SDS011;3032;49.484;11.112;2023-08-06T00:16:42;7.97;;;7.28;;
6007;SDS011;3032;49.484;11.112;2023-08-06T00:19:09;7.13;;;6.50;;
6007;SDS011;3032;49.484;11.112;2023-08-06T00:21:34;7.27;;;6.67;;
6007;SDS011;3032;49.484;11.112;2023-08-06T00:24:00;10.40;;;7.90;;
6007;SDS011;3032;49.484;11.112;2023-08-06T00:26:25;8.43;;;7.37;;
6007;SDS011;3032;49.484;11.112;2023-08-06T00:28:51;8.40;;;7.20;;
6007;SDS011;3032;49.484;11.112;2023-08-06T00:31:16;8.30;;;7.53;;
6007;SDS011;3032;49.484;11.112;2023-08-06T00:33:42;9.77;;;7.57;;
6007;SDS011;3032;49.484;11.112;2023-08-06T00:36:07;8.33;;;7.53;;
6007;SDS011;3032;49.484;11.112;2023-08-06T00:38:33;11.93;;;8.90;;
6007;SDS011;3032;49.484;11.112;2023-08-06T00:40:58;9.30;;;8.40;;
6007;SDS011;3032;49.484;11.112;2023-08-06T00:43:25;11.00;;;9.85;;
6007;SDS011;3032;49.484;11.112;2023-08-06T00:45:51;12.10;;;9.40;;
6007;SDS011;3032;49.484;11.112;2023-08-06T00:48:17;17.17;;;12.45;;
6007;SDS011;3032;49.484;11.112;2023-08-06T00:50:42;10.73;;;8.93;;
6007;SDS011;3032;49.484;11.112;2023-08-06T00:53:08;11.97;;;8.60;;
6007;SDS011;3032;49.484;11.112;2023-08-06T00:55:34;11.40;;;10.23;;
6007;SDS011;3032;49.484;11.112;2023-08-06T00:58:00;9.93;;;8.93;;
6007;SDS011;3032;49.484;11.112;2023-08-06T01:00:26;9.25;;;8.45;;
6007;SDS011;3032;49.484;11.112;2023-08-06T01:02:53;13.27;;;10.43;;
6007;SDS011;3032;49.484;11.112;2023-08-06T01:05:19;16.65;;;12.43;;
6007;SDS011;3032;49.484;11.112;2023-08-06T01:10:55;13.40;;;11.40;;
6007;SDS011;3032;49.484;11.112;2023-08-06T01:16:01;14.82;;;12.23;;
6007;SDS011;3032;49.484;11.112;2023-08-06T01:18:28;15.50;;;11.25;;
6007;SDS011;3032;49.484;11.112;2023-08-06T01:20:54;22.53;;;14.60;;
6007;SDS011;3032;49.484;11.112;2023-08-06T01:23:19;18.07;;;13.97;;
6007;SDS011;3032;49.484;11.112;2023-08-06T01:28:37;13.88;;;11.43;;
6007;SDS011;3032;49.484;11.112;2023-08-06T01:31:10;9.07;;;8.18;;
6007;SDS011;3032;49.484;11.112;2023-08-06T01:33:59;14.77;;;12.50;;
6007;SDS011;3032;49.484;11.112;2023-08-06T01:36:27;17.88;;;13.80;;
6007;SDS011;3032;49.484;11.112;2023-08-06T01:38:53;15.13;;;12.23;;
6007;SDS011;3032;49.484;11.112;2023-08-06T01:41:19;20.37;;;13.97;;
6007;SDS011;3032;49.484;11.112;2023-08-06T01:43:45;16.87;;;13.57;;
6007;SDS011;3032;49.484;11.112;2023-08-06T01:46:10;18.00;;;15.30;;
6007;SDS011;3032;49.484;11.112;2023-08-06T01:48:37;12.33;;;11.07;;
6007;SDS011;3032;49.484;11.112;2023-08-06T01:51:05;22.50;;;17.23;;
6007;SDS011;3032;49.484;11.112;2023-08-06T01:53:31;29.10;;;18.65;;
6007;SDS011;3032;49.484;11.112;2023-08-06T01:55:57;22.40;;;16.13;;
6007;SDS011;3032;49.484;11.112;2023-08-06T01:58:24;17.97;;;15.70;;
6007;SDS011;3032;49.484;11.112;2023-08-06T02:00:50;18.10;;;13.95;;
6007;SDS011;3032;49.484;11.112;2023-08-06T02:03:15;20.73;;;14.70;;
6007;SDS011;3032;49.484;11.112;2023-08-06T02:05:41;17.37;;;14.43;;
6007;SDS011;3032;49.484;11.112;2023-08-06T02:08:07;19.73;;;15.00;;
6007;SDS011;3032;49.484;11.112;2023-08-06T02:10:32;23.23;;;15.43;;
6007;SDS011;3032;49.484;11.112;2023-08-06T02:12:58;20.40;;;14.20;;
6007;SDS011;3032;49.484;11.112;2023-08-06T02:15:24;21.60;;;16.00;;
6007;SDS011;3032;49.484;11.112;2023-08-06T02:17:49;17.10;;;12.70;;
6007;SDS011;3032;49.484;11.112;2023-08-06T02:20:15;16.77;;;13.10;;
6007;SDS011;3032;49.484;11.112;2023-08-06T02:22:40;16.73;;;13.77;;
6007;SDS011;3032;49.484;11.112;2023-08-06T02:25:06;15.57;;;13.50;;
6007;SDS011;3032;49.484;11.112;2023-08-06T02:27:32;15.77;;;13.47;;
6007;SDS011;3032;49.484;11.112;2023-08-06T02:29:57;18.43;;;14.17;;
6007;SDS011;3032;49.484;11.112;2023-08-06T02:32:23;22.33;;;15.20;;
6007;SDS011;3032;49.484;11.112;2023-08-06T02:34:48;12.17;;;10.87;;
6007;SDS011;3032;49.484;11.112;2023-08-06T02:37:14;14.20;;;11.83;;
6007;SDS011;3032;49.484;11.112;2023-08-06T02:39:39;12.80;;;11.13;;
6007;SDS011;3032;49.484;11.112;2023-08-06T02:42:08;15.73;;;12.63;;
6007;SDS011;3032;49.484;11.112;2023-08-06T02:44:34;15.73;;;10.95;;
6007;SDS011;3032;49.484;11.112;2023-08-06T02:47:00;15.32;;;12.32;;
6007;SDS011;3032;49.484;11.112;2023-08-06T02:49:26;15.67;;;11.60;;
6007;SDS011;3032;49.484;11.112;2023-08-06T02:51:52;11.37;;;10.13;;
6007;SDS011;3032;49.484;11.112;2023-08-06T02:54:18;10.97;;;8.93;;
6007;SDS011;3032;49.484;11.112;2023-08-06T02:56:44;12.18;;;9.35;;
6007;SDS011;3032;49.484;11.112;2023-08-06T02:59:11;9.82;;;8.45;;
6007;SDS011;3032;49.484;11.112;2023-08-06T03:01:37;11.18;;;8.70;;
6007;SDS011;3032;49.484;11.112;2023-08-06T03:04:03;9.90;;;8.20;;
6007;SDS011;3032;49.484;11.112;2023-08-06T03:06:28;9.77;;;7.37;;
6007;SDS011;3032;49.484;11.112;2023-08-06T03:08:54;7.00;;;6.40;;
6007;SDS011;3032;49.484;11.112;2023-08-06T03:11:19;6.07;;;5.47;;
6007;SDS011;3032;49.484;11.112;2023-08-06T03:13:45;9.43;;;8.07;;
6007;SDS011;3032;49.484;11.112;2023-08-06T03:16:14;8.00;;;6.72;;
6007;SDS011;3032;49.484;11.112;2023-08-06T03:18:40;10.23;;;5.73;;
6007;SDS011;3032;49.484;11.112;2023-08-06T03:21:05;6.53;;;6.00;;
6007;SDS011;3032;49.484;11.112;2023-08-06T03:23:31;8.30;;;7.07;;
6007;SDS011;3032;49.484;11.112;2023-08-06T03:26:02;6.87;;;5.50;;
6007;SDS011;3032;49.484;11.112;2023-08-06T03:28:28;6.05;;;5.60;;
6007;SDS011;3032;49.484;11.112;2023-08-06T03:31:00;7.00;;;6.30;;
6007;SDS011;3032;49.484;11.112;2023-08-06T03:33:26;7.57;;;6.20;;
6007;SDS011;3032;49.484;11.112;2023-08-06T03:35:52;10.07;;;7.97;;
6007;SDS011;3032;49.484;11.112;2023-08-06T03:38:17;7.20;;;6.43;;
6007;SDS011;3032;49.484;11.112;2023-08-06T03:40:43;6.57;;;5.73;;
6007;SDS011;3032;49.484;11.112;2023-08-06T03:43:08;10.57;;;6.50;;
6007;SDS011;3032;49.484;11.112;2023-08-06T03:45:34;6.87;;;6.17;;
6007;SDS011;3032;49.484;11.112;2023-08-06T03:47:59;7.73;;;6.83;;
6007;SDS011;3032;49.484;11.112;2023-08-06T03:50:25;6.83;;;6.23;;
6007;SDS011;3032;49.484;11.112;2023-08-06T03:52:50;7.87;;;6.50;;
6007;SDS011;3032;49.484;11.112;2023-08-06T03:55:16;11.10;;;7.60;;
6007;SDS011;3032;49.484;11.112;2023-08-06T03:57:41;7.40;;;6.77;;
6007;SDS011;3032;49.484;11.112;2023-08-06T04:00:07;13.27;;;8.63;;
6007;SDS011;3032;49.484;11.112;2023-08-06T04:02:33;9.68;;;8.68;;
6007;SDS011;3032;49.484;11.112;2023-08-06T04:04:59;11.90;;;8.90;;
6007;SDS011;3032;49.484;11.112;2023-08-06T04:07:25;11.38;;;9.60;;
6007;SDS011;3032;49.484;11.112;2023-08-06T04:09:54;15.60;;;9.90;;
6007;SDS011;3032;49.484;11.112;2023-08-06T04:12:22;18.52;;;11.93;;
6007;SDS011;3032;49.484;11.112;2023-08-06T04:14:47;14.23;;;11.00;;
6007;SDS011;3032;49.484;11.112;2023-08-06T04:17:13;27.03;;;15.37;;
6007;SDS011;3032;49.484;11.112;2023-08-06T04:19:39;21.33;;;14.20;;
6007;SDS011;3032;49.484;11.112;2023-08-06T04:22:04;20.57;;;12.20;;
6007;SDS011;3032;49.484;11.112;2023-08-06T04:24:30;9.43;;;8.60;;
6007;SDS011;3032;49.484;11.112;2023-08-06T04:26:55;14.03;;;9.70;;
6007;SDS011;3032;49.484;11.112;2023-08-06T04:29:21;11.80;;;10.30;;
6007;SDS011;3032;49.484;11.112;2023-08-06T04:31:46;12.13;;;10.70;;
6007;SDS011;3032;49.484;11.112;2023-08-06T04:34:12;16.10;;;12.00;;
6007;SDS011;3032;49.484;11.112;2023-08-06T04:36:37;13.80;;;12.03;;
6007;SDS011;3032;49.484;11.112;2023-08-06T04:39:04;14.07;;;8.00;;
6007;SDS011;3032;49.484;11.112;2023-08-06T04:41:29;11.50;;;9.97;;
6007;SDS011;3032;49.484;11.112;2023-08-06T04:43:56;9.90;;;7.73;;
6007;SDS011;3032;49.484;11.112;2023-08-06T04:46:22;11.05;;;7.15;;
6007;SDS011;3032;49.484;11.112;2023-08-06T04:48:47;7.53;;;5.43;;
6007;SDS011;3032;49.484;11.112;2023-08-06T04:51:13;6.23;;;5.73;;
6007;SDS011;3032;49.484;11.112;2023-08-06T04:53:39;6.50;;;5.90;;
6007;SDS011;3032;49.484;11.112;2023-08-06T04:56:05;10.25;;;7.15;;
6007;SDS011;3032;49.484;11.112;2023-08-06T04:58:30;6.47;;;5.97;;
6007;SDS011;3032;49.484;11.112;2023-08-06T05:00:56;7.20;;;6.60;;
6007;SDS011;3032;49.484;11.112;2023-08-06T05:03:22;6.97;;;6.37;;
6007;SDS011;3032;49.484;11.112;2023-08-06T05:05:47;8.88;;;7.10;;
6007;SDS011;3032;49.484;11.112;2023-08-06T05:08:16;6.53;;;5.70;;
6007;SDS011;3032;49.484;11.112;2023-08-06T05:10:42;11.95;;;6.25;;
6007;SDS011;3032;49.484;11.112;2023-08-06T05:13:09;7.45;;;6.50;;
6007;SDS011;3032;49.484;11.112;2023-08-06T05:15:34;6.50;;;5.90;;
6007;SDS011;3032;49.484;11.112;2023-08-06T05:18:00;5.87;;;5.37;;
6007;SDS011;3032;49.484;11.112;2023-08-06T05:20:25;5.53;;;4.20;;
6007;SDS011;3032;49.484;11.112;2023-08-06T05:22:51;5.23;;;4.73;;
6007;SDS011;3032;49.484;11.112;2023-08-06T05:25:16;4.57;;;4.20;;
6007;SDS011;3032;49.484;11.112;2023-08-06T05:27:42;4.30;;;4.00;;
6007;SDS011;3032;49.484;11.112;2023-08-06T05:30:08;6.57;;;5.93;;
6007;SDS011;3032;49.484;11.112;2023-08-06T05:32:34;4.60;;;4.20;;
6007;SDS011;3032;49.484;11.112;2023-08-06T05:34:59;5.40;;;5.03;;
6007;SDS011;3032;49.484;11.112;2023-08-06T05:37:25;4.57;;;4.00;;
6007;SDS011;3032;49.484;11.112;2023-08-06T05:39:50;6.00;;;4.00;;
6007;SDS011;3032;49.484;11.112;2023-08-06T05:42:16;3.60;;;3.37;;
6007;SDS011;3032;49.484;11.112;2023-08-06T05:44:41;3.80;;;3.50;;
6007;SDS011;3032;49.484;11.112;2023-08-06T05:47:07;3.60;;;3.30;;
6007;SDS011;3032;49.484;11.112;2023-08-06T05:49:33;4.00;;;3.70;;
6007;SDS011;3032;49.484;11.112;2023-08-06T05:51:58;4.67;;;3.53;;
6007;SDS011;3032;49.484;11.112;2023-08-06T05:54:24;5.35;;;4.13;;
6007;SDS011;3032;49.484;11.112;2023-08-06T05:56:50;4.40;;;4.00;;
6007;SDS011;3032;49.484;11.112;2023-08-06T05:59:15;5.10;;;4.30;;
6007;SDS011;3032;49.484;11.112;2023-08-06T06:01:41;3.80;;;3.50;;
6007;SDS011;3032;49.484;11.112;2023-08-06T06:04:06;3.17;;;2.50;;
6007;SDS011;3032;49.484;11.112;2023-08-06T06:06:32;3.97;;;3.67;;
6007;SDS011;3032;49.484;11.112;2023-08-06T06:08:57;3.90;;;3.30;;
6007;SDS011;3032;49.484;11.112;2023-08-06T06:11:23;3.30;;;3.10;;
6007;SDS011;3032;49.484;11.112;2023-08-06T06:13:50;3.87;;;3.57;;
6007;SDS011;3032;49.484;11.112;2023-08-06T06:16:16;3.47;;;3.17;;
6007;SDS011;3032;49.484;11.112;2023-08-06T06:18:41;3.97;;;3.67;;
6007;SDS011;3032;49.484;11.112;2023-08-06T06:21:07;3.10;;;2.90;;
6007;SDS011;3032;49.484;11.112;2023-08-06T06:23:33;4.23;;;3.50;;
6007;SDS011;3032;49.484;11.112;2023-08-06T06:25:59;4.03;;;3.10;;
6007;SDS011;3032;49.484;11.112;2023-08-06T06:28:24;5.07;;;3.83;;
6007;SDS011;3032;49.484;11.112;2023-08-06T06:30:51;3.80;;;3.47;;
6007;SDS011;3032;49.484;11.112;2023-08-06T06:33:16;3.22;;;3.03;;
6007;SDS011;3032;49.484;11.112;2023-08-06T06:35:42;3.60;;;3.30;;
6007;SDS011;3032;49.484;11.112;2023-08-06T06:38:08;3.50;;;3.20;;
6007;SDS011;3032;49.484;11.112;2023-08-06T06:40:33;4.30;;;3.30;;
6007;SDS011;3032;49.484;11.112;2023-08-06T06:42:59;4.50;;;4.20;;
6007;SDS011;3032;49.484;11.112;2023-08-06T06:45:24;5.10;;;4.70;;
6007;SDS011;3032;49.484;11.112;2023-08-06T06:47:50;5.53;;;4.97;;
6007;SDS011;3032;49.484;11.112;2023-08-06T06:50:15;4.60;;;4.20;;
6007;SDS011;3032;49.484;11.112;2023-08-06T06:52:41;3.83;;;3.37;;
6007;SDS011;3032;49.484;11.112;2023-08-06T06:55:07;4.33;;;3.97;;
6007;SDS011;3032;49.484;11.112;2023-08-06T06:57:32;7.67;;;3.80;;
6007;SDS011;3032;49.484;11.112;2023-08-06T06:59:58;6.17;;;4.10;;
6007;SDS011;3032;49.484;11.112;2023-08-06T07:02:23;4.83;;;4.00;;
6007;SDS011;3032;49.484;11.112;2023-08-06T07:04:49;4.10;;;3.80;;
6007;SDS011;3032;49.484;11.112;2023-08-06T07:07:15;3.83;;;3.53;;
6007;SDS011;3032;49.484;11.112;2023-08-06T07:09:41;3.47;;;3.17;;
6007;SDS011;3032;49.484;11.112;2023-08-06T07:12:06;4.37;;;3.97;;
6007;SDS011;3032;49.484;11.112;2023-08-06T07:14:32;3.87;;;3.23;;
6007;SDS011;3032;49.484;11.112;2023-08-06T07:16:58;2.80;;;2.60;;
6007;SDS011;3032;49.484;11.112;2023-08-06T07:19:23;5.07;;;2.90;;
6007;SDS011;3032;49.484;11.112;2023-08-06T07:21:49;4.00;;;3.70;;
6007;SDS011;3032;49.484;11.112;2023-08-06T07:24:15;4.00;;;3.70;;
6007;SDS011;3032;49.484;11.112;2023-08-06T07:26:41;4.47;;;4.07;;
6007;SDS011;3032;49.484;11.112;2023-08-06T07:29:06;4.10;;;3.73;;
6007;SDS011;3032;49.484;11.112;2023-08-06T07:31:32;3.97;;;3.67;;
6007;SDS011;3032;49.484;11.112;2023-08-06T07:33:57;3.80;;;3.60;;
6007;SDS011;3032;49.484;11.112;2023-08-06T07:36:23;3.87;;;3.57;;
6007;SDS011;3032;49.484;11.112;2023-08-06T07:38:48;3.70;;;3.50;;
6007;SDS011;3032;49.484;11.112;2023-08-06T07:41:20;3.88;;;3.53;;
6007;SDS011;3032;49.484;11.112;2023-08-06T07:43:46;3.88;;;3.22;;
6007;SDS011;3032;49.484;11.112;2023-08-06T07:46:11;3.63;;;3.10;;
6007;SDS011;3032;49.484;11.112;2023-08-06T07:48:38;4.35;;;3.67;;
6007;SDS011;3032;49.484;11.112;2023-08-06T07:51:04;3.67;;;3.40;;
6007;SDS011;3032;49.484;11.112;2023-08-06T07:53:29;4.20;;;2.87;;
6007;SDS011;3032;49.484;11.112;2023-08-06T07:55:56;2.97;;;2.73;;
6007;SDS011;3032;49.484;11.112;2023-08-06T07:58:22;4.13;;;3.30;;
6007;SDS011;3032;49.484;11.112;2023-08-06T08:00:49;3.00;;;2.80;;
6007;SDS011;3032;49.484;11.112;2023-08-06T08:03:15;3.50;;;2.70;;
6007;SDS011;3032;49.484;11.112;2023-08-06T08:05:44;2.90;;;2.70;;
6007;SDS011;3032;49.484;11.112;2023-08-06T08:08:09;3.08;;;2.60;;
6007;SDS011;3032;49.484;11.112;2023-08-06T08:10:35;2.40;;;2.20;;
6007;SDS011;3032;49.484;11.112;2023-08-06T08:13:02;2.38;;;2.05;;
6007;SDS011;3032;49.484;11.112;2023-08-06T08:15:29;2.70;;;2.40;;
6007;SDS011;3032;49.484;11.112;2023-08-06T08:17:56;1.95;;;1.85;;
6007;SDS011;3032;49.484;11.112;2023-08-06T08:20:21;2.83;;;2.40;;
6007;SDS011;3032;49.484;11.112;2023-08-06T08:22:47;3.50;;;2.50;;
6007;SDS011;3032;49.484;11.112;2023-08-06T08:25:13;2.53;;;2.33;;
6007;SDS011;3032;49.484;11.112;2023-08-06T08:27:40;3.42;;;2.75;;
6007;SDS011;3032;49.484;11.112;2023-08-06T08:30:06;2.70;;;2.50;;
6007;SDS011;3032;49.484;11.112;2023-08-06T08:32:32;3.00;;;1.75;;
6007;SDS011;3032;49.484;11.112;2023-08-06T08:34:58;1.90;;;1.80;;
6007;SDS011;3032;49.484;11.112;2023-08-06T08:37:23;1.63;;;1.53;;
6007;SDS011;3032;49.484;11.112;2023-08-06T08:39:49;1.60;;;1.50;;
6007;SDS011;3032;49.484;11.112;2023-08-06T08:42:15;1.40;;;1.30;;
6007;SDS011;3032;49.484;11.112;2023-08-06T08:44:42;3.80;;;1.80;;
6007;SDS011;3032;49.484;11.112;2023-08-06T08:47:08;2.85;;;1.30;;
6007;SDS011;3032;49.484;11.112;2023-08-06T08:49:35;1.10;;;1.10;;
6007;SDS011;3032;49.484;11.112;2023-08-06T08:52:02;1.35;;;1.25;;
6007;SDS011;3032;49.484;11.112;2023-08-06T08:54:31;1.50;;;0.90;;
6007;SDS011;3032;49.484;11.112;2023-08-06T08:56:59;1.35;;;1.10;;
6007;SDS011;3032;49.484;11.112;2023-08-06T08:59:24;0.70;;;0.70;;
6007;SDS011;3032;49.484;11.112;2023-08-06T09:01:51;0.60;;;0.60;;
6007;SDS011;3032;49.484;11.112;2023-08-06T09:04:18;0.65;;;0.65;;
6007;SDS011;3032;49.484;11.112;2023-08-06T09:06:46;0.60;;;0.60;;
6007;SDS011;3032;49.484;11.112;2023-08-06T09:09:13;0.65;;;0.50;;
6007;SDS011;3032;49.484;11.112;2023-08-06T09:11:43;1.67;;;0.70;;
6007;SDS011;3032;49.484;11.112;2023-08-06T09:14:10;0.63;;;0.63;;
6007;SDS011;3032;49.484;11.112;2023-08-06T09:16:37;0.80;;;0.60;;
6007;SDS011;3032;49.484;11.112;2023-08-06T09:19:09;0.63;;;0.60;;
6007;SDS011;3032;49.484;11.112;2023-08-06T09:21:39;1.13;;;0.70;;
6007;SDS011;3032;49.484;11.112;2023-08-06T09:24:11;3.00;;;0.80;;
6007;SDS011;3032;49.484;11.112;2023-08-06T09:26:41;2.00;;;0.70;;
6007;SDS011;3032;49.484;11.112;2023-08-06T09:29:09;0.60;;;0.60;;
6007;SDS011;3032;49.484;11.112;2023-08-06T09:31:45;1.17;;;0.60;;
6007;SDS011;3032;49.484;11.112;2023-08-06T09:34:19;0.60;;;0.60;;
6007;SDS011;3032;49.484;11.112;2023-08-06T09:36:48;0.70;;;0.70;;
6007;SDS011;3032;49.484;11.112;2023-08-06T09:39:21;2.97;;;0.63;;
6007;SDS011;3032;49.484;11.112;2023-08-06T09:41:52;0.63;;;0.50;;
6007;SDS011;3032;49.484;11.112;2023-08-06T09:44:21;1.17;;;0.57;;
6007;SDS011;3032;49.484;11.112;2023-08-06T09:46:49;0.60;;;0.60;;
6007;SDS011;3032;49.484;11.112;2023-08-06T09:49:18;0.73;;;0.50;;
6007;SDS011;3032;49.484;11.112;2023-08-06T09:51:45;0.50;;;0.50;;
6007;SDS011;3032;49.484;11.112;2023-08-06T09:54:15;0.60;;;0.60;;
6007;SDS011;3032;49.484;11.112;2023-08-06T09:56:42;0.70;;;0.55;;
6007;SDS011;3032;49.484;11.112;2023-08-06T09:59:08;0.60;;;0.60;;
6007;SDS011;3032;49.484;11.112;2023-08-06T10:01:36;0.52;;;0.52;;
6007;SDS011;3032;49.484;11.112;2023-08-06T10:04:02;2.00;;;0.70;;
6007;SDS011;3032;49.484;11.112;2023-08-06T10:06:29;0.70;;;0.70;;
6007;SDS011;3032;49.484;11.112;2023-08-06T10:08:58;1.15;;;0.63;;
6007;SDS011;3032;49.484;11.112;2023-08-06T10:11:24;0.70;;;0.60;;
6007;SDS011;3032;49.484;11.112;2023-08-06T10:13:58;0.70;;;0.60;;
6007;SDS011;3032;49.484;11.112;2023-08-06T10:16:31;0.60;;;0.50;;
6007;SDS011;3032;49.484;11.112;2023-08-06T10:18:58;1.88;;;0.55;;
6007;SDS011;3032;49.484;11.112;2023-08-06T10:21:24;0.60;;;0.60;;
6007;SDS011;3032;49.484;11.112;2023-08-06T10:23:56;0.70;;;0.70;;
6007;SDS011;3032;49.484;11.112;2023-08-06T10:26:25;1.63;;;0.60;;
6007;SDS011;3032;49.484;11.112;2023-08-06T10:28:52;0.77;;;0.73;;
6007;SDS011;3032;49.484;11.112;2023-08-06T10:31:18;0.63;;;0.63;;
6007;SDS011;3032;49.484;11.112;2023-08-06T10:33:45;0.70;;;0.70;;
6007;SDS011;3032;49.484;11.112;2023-08-06T10:36:12;0.80;;;0.70;;
6007;SDS011;3032;49.484;11.112;2023-08-06T10:38:44;0.60;;;0.60;;
6007;SDS011;3032;49.484;11.112;2023-08-06T10:41:15;0.85;;;0.70;;
6007;SDS011;3032;49.484;11.112;2023-08-06T10:43:43;0.50;;;0.50;;
6007;SDS011;3032;49.484;11.112;2023-08-06T10:46:21;0.98;;;0.65;;
6007;SDS011;3032;49.484;11.112;2023-08-06T10:48:48;1.75;;;0.70;;
6007;SDS011;3032;49.484;11.112;2023-08-06T10:51:14;1.13;;;0.60;;
6007;SDS011;3032;49.484;11.112;2023-08-06T10:53:44;0.60;;;0.60;;
6007;SDS011;3032;49.484;11.112;2023-08-06T10:56:12;0.60;;;0.60;;
6007;SDS011;3032;49.484;11.112;2023-08-06T10:58:41;0.70;;;0.60;;
6007;SDS011;3032;49.484;11.112;2023-08-06T11:01:07;0.60;;;0.60;;
6007;SDS011;3032;49.484;11.112;2023-08-06T11:03:34;0.70;;;0.70;;
6007;SDS011;3032;49.484;11.112;2023-08-06T11:05:59;0.60;;;0.60;;
6007;SDS011;3032;49.484;11.112;2023-08-06T11:08:33;0.60;;;0.60;;
6007;SDS011;3032;49.484;11.112;2023-08-06T11:11:10;0.50;;;0.50;;
6007;SDS011;3032;49.484;11.112;2023-08-06T11:13:39;1.00;;;0.60;;
6007;SDS011;3032;49.484;11.112;2023-08-06T11:16:06;0.60;;;0.50;;
6007;SDS011;3032;49.484;11.112;2023-08-06T11:18:32;0.60;;;0.60;;
6007;SDS011;3032;49.484;11.112;2023-08-06T11:21:01;0.52;;;0.52;;
6007;SDS011;3032;49.484;11.112;2023-08-06T11:23:27;0.60;;;0.57;;
6007;SDS011;3032;49.484;11.112;2023-08-06T11:25:54;0.70;;;0.60;;
6007;SDS011;3032;49.484;11.112;2023-08-06T11:28:20;1.00;;;0.60;;
6007;SDS011;3032;49.484;11.112;2023-08-06T11:30:46;0.95;;;0.65;;
6007;SDS011;3032;49.484;11.112;2023-08-06T11:33:13;0.75;;;0.50;;
6007;SDS011;3032;49.484;11.112;2023-08-06T11:35:38;0.70;;;0.60;;
6007;SDS011;3032;49.484;11.112;2023-08-06T11:38:05;0.50;;;0.50;;
6007;SDS011;3032;49.484;11.112;2023-08-06T11:40:31;0.60;;;0.60;;
6007;SDS011;3032;49.484;11.112;2023-08-06T11:42:58;0.50;;;0.50;;
6007;SDS011;3032;49.484;11.112;2023-08-06T11:45:23;1.10;;;0.60;;
6007;SDS011;3032;49.484;11.112;2023-08-06T11:47:50;1.08;;;0.50;;
6007;SDS011;3032;49.484;11.112;2023-08-06T11:50:24;0.50;;;0.50;;
6007;SDS011;3032;49.484;11.112;2023-08-06T11:52:52;0.60;;;0.60;;
6007;SDS011;3032;49.484;11.112;2023-08-06T11:55:23;0.50;;;0.50;;
6007;SDS011;3032;49.484;11.112;2023-08-06T11:57:49;0.50;;;0.50;;
6007;SDS011;3032;49.484;11.112;2023-08-06T12:00:15;0.50;;;0.40;;
6007;SDS011;3032;49.484;11.112;2023-08-06T12:02:44;0.57;;;0.57;;
6007;SDS011;3032;49.484;11.112;2023-08-06T12:05:17;0.60;;;0.60;;
6007;SDS011;3032;49.484;11.112;2023-08-06T12:07:51;0.52;;;0.52;;
6007;SDS011;3032;49.484;11.112;2023-08-06T12:10:18;0.52;;;0.52;;
6007;SDS011;3032;49.484;11.112;2023-08-06T12:12:46;0.77;;;0.60;;
6007;SDS011;3032;49.484;11.112;2023-08-06T12:15:12;19.00;;;2.20;;
6007;SDS011;3032;49.484;11.112;2023-08-06T12:17:38;6.78;;;1.00;;
6007;SDS011;3032;49.484;11.112;2023-08-06T12:20:05;428.93;;;24.57;;
6007;SDS011;3032;49.484;11.112;2023-08-06T12:22:31;323.63;;;17.58;;
6007;SDS011;3032;49.484;11.112;2023-08-06T12:25:00;277.98;;;15.77;;
6007;SDS011;3032;49.484;11.112;2023-08-06T12:27:28;62.60;;;4.40;;
6007;SDS011;3032;49.484;11.112;2023-08-06T12:29:53;11.00;;;1.43;;
6007;SDS011;3032;49.484;11.112;2023-08-06T12:32:19;0.90;;;0.60;;
6007;SDS011;3032;49.484;11.112;2023-08-06T12:34:44;1.27;;;0.60;;
6007;SDS011;3032;49.484;11.112;2023-08-06T12:37:10;0.60;;;0.60;;
6007;SDS011;3032;49.484;11.112;2023-08-06T12:39:36;1.63;;;0.50;;
6007;SDS011;3032;49.484;11.112;2023-08-06T12:42:03;0.95;;;0.52;;
6007;SDS011;3032;49.484;11.112;2023-08-06T12:44:30;1.92;;;0.60;;
6007;SDS011;3032;49.484;11.112;2023-08-06T12:46:56;1.15;;;1.02;;
6007;SDS011;3032;49.484;11.112;2023-08-06T12:49:22;5.43;;;0.70;;
6007;SDS011;3032;49.484;11.112;2023-08-06T12:51:49;0.60;;;0.60;;
6007;SDS011;3032;49.484;11.112;2023-08-06T12:54:19;0.50;;;0.50;;
6007;SDS011;3032;49.484;11.112;2023-08-06T12:56:45;0.70;;;0.60;;
6007;SDS011;3032;49.484;11.112;2023-08-06T12:59:16;0.50;;;0.50;;
6007;SDS011;3032;49.484;11.112;2023-08-06T13:01:42;1.23;;;0.47;;
6007;SDS011;3032;49.484;11.112;2023-08-06T13:04:09;0.50;;;0.50;;
6007;SDS011;3032;49.484;11.112;2023-08-06T13:06:35;0.60;;;0.60;;
6007;SDS011;3032;49.484;11.112;2023-08-06T13:09:11;0.52;;;0.52;;
6007;SDS011;3032;49.484;11.112;2023-08-06T13:11:38;0.80;;;0.52;;
6007;SDS011;3032;49.484;11.112;2023-08-06T13:14:06;0.70;;;0.70;;
6007;SDS011;3032;49.484;11.112;2023-08-06T13:16:33;0.75;;;0.60;;
6007;SDS011;3032;49.484;11.112;2023-08-06T13:18:59;0.90;;;0.60;;
6007;SDS011;3032;49.484;11.112;2023-08-06T13:21:31;2.93;;;0.57;;
6007;SDS011;3032;49.484;11.112;2023-08-06T13:23:59;0.98;;;0.50;;
6007;SDS011;3032;49.484;11.112;2023-08-06T13:26:31;0.60;;;0.60;;
6007;SDS011;3032;49.484;11.112;2023-08-06T13:28:57;0.50;;;0.50;;
6007;SDS011;3032;49.484;11.112;2023-08-06T13:31:24;1.13;;;0.60;;
6007;SDS011;3032;49.484;11.112;2023-08-06T13:33:49;1.57;;;0.57;;
6007;SDS011;3032;49.484;11.112;2023-08-06T13:36:15;0.50;;;0.50;;
6007;SDS011;3032;49.484;11.112;2023-08-06T13:38:41;0.50;;;0.50;;
6007;SDS011;3032;49.484;11.112;2023-08-06T13:41:07;1.67;;;0.50;;
6007;SDS011;3032;49.484;11.112;2023-08-06T13:43:32;1.17;;;0.50;;
6007;SDS011;3032;49.484;11.112;2023-08-06T13:45:58;1.37;;;0.50;;
6007;SDS011;3032;49.484;11.112;2023-08-06T13:48:24;0.50;;;0.47;;
6007;SDS011;3032;49.484;11.112;2023-08-06T13:50:49;0.60;;;0.60;;
6007;SDS011;3032;49.484;11.112;2023-08-06T13:53:15;0.50;;;0.50;;
6007;SDS011;3032;49.484;11.112;2023-08-06T13:55:41;1.10;;;0.70;;
6007;SDS011;3032;49.484;11.112;2023-08-06T13:58:06;1.17;;;0.60;;
6007;SDS011;3032;49.484;11.112;2023-08-06T14:00:32;0.70;;;0.70;;
6007;SDS011;3032;49.484;11.112;2023-08-06T14:02:57;0.60;;;0.60;;
6007;SDS011;3032;49.484;11.112;2023-08-06T14:05:23;0.67;;;0.60;;
6007;SDS011;3032;49.484;11.112;2023-08-06T14:07:48;0.70;;;0.70;;
6007;SDS011;3032;49.484;11.112;2023-08-06T14:10:14;0.60;;;0.60;;
6007;SDS011;3032;49.484;11.112;2023-08-06T14:12:40;0.80;;;0.80;;
6007;SDS011;3032;49.484;11.112;2023-08-06T14:15:05;0.80;;;0.80;;
6007;SDS011;3032;49.484;11.112;2023-08-06T14:17:31;0.60;;;0.60;;
6007;SDS011;3032;49.484;11.112;2023-08-06T14:19:57;0.53;;;0.53;;
6007;SDS011;3032;49.484;11.112;2023-08-06T14:22:22;1.37;;;0.70;;
6007;SDS011;3032;49.484;11.112;2023-08-06T14:24:48;0.80;;;0.80;;
6007;SDS011;3032;49.484;11.112;2023-08-06T14:27:13;0.90;;;0.90;;
6007;SDS011;3032;49.484;11.112;2023-08-06T14:29:39;1.00;;;1.00;;
6007;SDS011;3032;49.484;11.112;2023-08-06T14:32:05;0.70;;;0.70;;
6007;SDS011;3032;49.484;11.112;2023-08-06T14:34:30;1.50;;;0.80;;
6007;SDS011;3032;49.484;11.112;2023-08-06T14:36:56;1.00;;;1.00;;
6007;SDS011;3032;49.484;11.112;2023-08-06T14:39:22;1.27;;;0.80;;
6007;SDS011;3032;49.484;11.112;2023-08-06T14:41:47;0.60;;;0.60;;
6007;SDS011;3032;49.484;11.112;2023-08-06T14:44:13;1.73;;;0.93;;
6007;SDS011;3032;49.484;11.112;2023-08-06T14:46:39;0.63;;;0.63;;
6007;SDS011;3032;49.484;11.112;2023-08-06T14:49:04;0.90;;;0.90;;
6007;SDS011;3032;49.484;11.112;2023-08-06T14:51:30;0.87;;;0.87;;
6007;SDS011;3032;49.484;11.112;2023-08-06T14:53:55;0.80;;;0.77;;
6007;SDS011;3032;49.484;11.112;2023-08-06T14:56:21;0.90;;;0.80;;
6007;SDS011;3032;49.484;11.112;2023-08-06T14:58:48;1.02;;;0.75;;
6007;SDS011;3032;49.484;11.112;2023-08-06T15:01:13;0.87;;;0.87;;